createdAt,value
2023-02-15T00:00:27.936Z,25.83
2023-02-15T00:04:48.046Z,30.48
2023-02-15T00:09:05.362Z,33.00
2023-02-15T00:13:22.452Z,26.37
2023-02-15T00:17:39.613Z,26.60
2023-02-15T00:21:56.908Z,23.77
2023-02-15T00:26:14.056Z,25.00
2023-02-15T00:30:31.854Z,29.02
2023-02-15T00:34:48.975Z,21.83
2023-02-15T00:39:06.714Z,21.67
2023-02-15T00:43:24.310Z,25.33
2023-02-15T00:47:41.521Z,21.40
2023-02-15T00:51:58.631Z,22.00
2023-02-15T00:56:16.008Z,22.60
2023-02-15T01:00:33.263Z,27.10
2023-02-15T01:04:50.343Z,22.47
2023-02-15T01:09:07.482Z,23.27
2023-02-15T01:13:24.576Z,21.02
2023-02-15T01:17:41.815Z,24.65
2023-02-15T01:21:58.958Z,27.67
2023-02-15T01:26:17.133Z,22.98
2023-02-15T01:30:34.387Z,26.90
2023-02-15T01:34:51.480Z,22.43
2023-02-15T01:39:08.808Z,24.52
2023-02-15T01:43:41.268Z,21.43
2023-02-15T01:48:05.373Z,25.00
2023-02-15T01:52:22.789Z,21.02
2023-02-15T01:56:41.825Z,21.33
2023-02-15T02:01:01.413Z,21.42
2023-02-15T02:05:18.788Z,24.75
2023-02-15T02:09:37.295Z,19.17
2023-02-15T02:13:56.118Z,20.95
2023-02-15T02:18:32.079Z,17.95
2023-02-15T02:23:18.240Z,21.58
2023-02-15T02:28:12.848Z,19.50
2023-02-15T02:33:10.864Z,17.65
2023-02-15T02:37:48.970Z,19.33
2023-02-15T02:42:26.598Z,20.35
2023-02-15T02:47:00.989Z,20.23
2023-02-15T02:51:22.321Z,18.25
2023-02-15T02:55:46.613Z,20.17
2023-02-15T03:00:05.903Z,18.13
2023-02-15T03:04:29.618Z,20.05
2023-02-15T03:08:53.079Z,18.02
2023-02-15T03:13:10.308Z,19.10
2023-02-15T03:17:32.556Z,17.07
2023-02-15T03:22:04.737Z,18.00
2023-02-15T03:26:24.526Z,15.23
2023-02-15T03:30:46.250Z,15.80
2023-02-15T03:35:03.913Z,18.55
2023-02-15T03:39:38.139Z,20.25
2023-02-15T03:44:00.559Z,14.45
2023-02-15T03:48:19.368Z,15.48
2023-02-15T03:52:37.750Z,15.18
2023-02-15T03:57:15.660Z,17.23
2023-02-15T04:01:44.854Z,21.50
2023-02-15T04:06:04.010Z,16.95
2023-02-15T04:10:40.068Z,18.67
2023-02-15T04:15:15.958Z,13.43
2023-02-15T04:19:51.471Z,14.77
2023-02-15T04:24:28.185Z,12.57
2023-02-15T04:28:45.334Z,14.20
2023-02-15T04:33:02.434Z,15.70
2023-02-15T04:37:19.807Z,12.53
2023-02-15T04:41:36.956Z,14.57
2023-02-15T04:45:55.233Z,15.88
2023-02-15T04:50:12.713Z,14.33
2023-02-15T04:54:29.847Z,12.25
2023-02-15T04:58:47.415Z,13.20
2023-02-15T05:03:04.703Z,11.65
2023-02-15T05:07:21.857Z,13.07
2023-02-15T05:11:39.281Z,17.53
2023-02-15T05:15:56.426Z,12.98
2023-02-15T05:20:13.647Z,12.70
2023-02-15T05:24:49.244Z,11.77
2023-02-15T05:29:06.859Z,14.30
2023-02-15T05:33:23.970Z,14.70
2023-02-15T05:37:41.116Z,15.27
2023-02-15T05:42:01.246Z,12.63
2023-02-15T05:46:18.403Z,16.17
2023-02-15T05:50:35.521Z,14.30
2023-02-15T05:54:52.631Z,14.90
2023-02-15T05:59:09.804Z,13.97
2023-02-15T06:03:29.347Z,11.90
2023-02-15T06:07:46.552Z,13.73
2023-02-15T06:12:03.760Z,11.80
2023-02-15T06:16:20.964Z,14.17
2023-02-15T06:20:38.264Z,14.13
2023-02-15T06:24:55.366Z,15.03
2023-02-15T06:29:12.473Z,15.43
2023-02-15T06:33:31.381Z,16.03
2023-02-15T06:37:49.344Z,14.68
2023-02-15T06:46:23.991Z,17.17
2023-02-15T06:50:41.634Z,14.82
2023-02-15T06:54:58.716Z,13.13
2023-02-15T06:59:15.800Z,20.92
2023-02-15T07:03:34.147Z,17.47
2023-02-15T07:07:51.580Z,18.15
2023-02-15T07:12:28.926Z,18.30
2023-02-15T07:16:46.003Z,14.10
2023-02-15T07:21:03.259Z,11.93
2023-02-15T07:25:20.643Z,14.40
2023-02-15T07:29:37.765Z,11.27
2023-02-15T07:33:54.883Z,10.43
2023-02-15T07:38:11.941Z,8.77
2023-02-15T07:42:31.193Z,15.43
2023-02-15T07:46:48.302Z,11.73
2023-02-15T07:51:07.653Z,9.70
2023-02-15T07:55:25.622Z,11.95
2023-02-15T07:59:42.717Z,14.48
2023-02-15T08:03:59.859Z,13.20
2023-02-15T08:08:32.221Z,11.65
2023-02-15T08:12:49.356Z,11.05
2023-02-15T08:17:06.466Z,17.75
2023-02-15T08:21:25.049Z,12.73
2023-02-15T08:25:42.234Z,11.77
2023-02-15T08:29:59.386Z,12.13
2023-02-15T08:34:19.573Z,13.48
2023-02-15T08:38:37.215Z,10.52
2023-02-15T08:42:54.323Z,10.13
2023-02-15T08:47:11.402Z,9.13
2023-02-15T08:51:33.690Z,9.23
2023-02-15T08:55:58.101Z,8.57
2023-02-15T09:00:15.815Z,11.77
2023-02-15T09:04:32.908Z,9.03
2023-02-15T09:08:50.874Z,8.13
2023-02-15T09:13:08.090Z,9.48
2023-02-15T09:17:25.674Z,9.32
2023-02-15T09:21:42.786Z,9.80
2023-02-15T09:26:04.154Z,8.07
2023-02-15T09:30:21.518Z,11.15
2023-02-15T09:34:39.098Z,8.50
2023-02-15T09:39:03.140Z,9.18
2023-02-15T09:43:34.138Z,13.48
2023-02-15T09:48:16.532Z,10.57
2023-02-15T09:53:01.260Z,8.05
2023-02-15T09:57:31.523Z,8.70
2023-02-15T10:02:22.010Z,16.23
2023-02-15T10:07:12.810Z,13.50
2023-02-15T10:11:42.222Z,9.57
2023-02-15T10:16:22.360Z,10.73
2023-02-15T10:20:49.542Z,10.43
2023-02-15T10:25:25.252Z,11.18
2023-02-15T10:30:07.522Z,8.23
2023-02-15T10:34:40.338Z,7.80
2023-02-15T10:39:06.742Z,5.18
2023-02-15T10:43:49.569Z,6.38
2023-02-15T10:48:24.459Z,4.22
2023-02-15T10:53:03.313Z,8.23
2023-02-15T10:57:43.578Z,4.83
2023-02-15T11:02:22.474Z,3.70
2023-02-15T11:06:49.216Z,3.50
2023-02-15T11:11:11.506Z,3.20
2023-02-15T11:15:40.127Z,3.25
2023-02-15T11:20:05.745Z,3.35
2023-02-15T11:24:26.649Z,2.40
2023-02-15T11:28:54.521Z,3.80
2023-02-15T11:33:31.844Z,3.63
2023-02-15T11:38:13.668Z,2.70
2023-02-15T11:42:32.615Z,1.83
2023-02-15T11:46:50.546Z,4.25
2023-02-15T11:51:14.990Z,2.90
2023-02-15T11:55:34.146Z,2.45
2023-02-15T11:59:59.402Z,2.85
2023-02-15T12:04:39.713Z,3.53
2023-02-15T12:09:23.815Z,4.30
2023-02-15T12:13:56.677Z,2.75
2023-02-15T12:18:39.835Z,2.80
2023-02-15T12:23:04.075Z,3.22
2023-02-15T12:27:31.274Z,3.78
2023-02-15T12:31:52.624Z,4.95
2023-02-15T12:36:33.896Z,2.92
2023-02-15T12:41:05.035Z,2.53
2023-02-15T12:45:25.172Z,3.42
2023-02-15T12:49:47.672Z,4.28
2023-02-15T12:54:23.495Z,8.85
2023-02-15T12:58:42.089Z,4.35
2023-02-15T13:03:00.986Z,4.63
2023-02-15T13:07:18.720Z,4.25
2023-02-15T13:11:38.133Z,4.57
2023-02-15T13:16:06.806Z,3.25
2023-02-15T13:20:25.427Z,3.90
2023-02-15T13:24:59.279Z,4.60
2023-02-15T13:29:23.200Z,3.03
2023-02-15T13:33:46.420Z,5.65
2023-02-15T13:38:37.246Z,2.75
2023-02-15T13:43:03.258Z,5.07
2023-02-15T13:47:20.322Z,4.85
2023-02-15T13:52:09.163Z,5.95
2023-02-15T13:56:45.748Z,5.85
2023-02-15T14:01:30.174Z,4.65
2023-02-15T14:05:53.841Z,3.25
2023-02-15T14:10:35.683Z,5.53
2023-02-15T14:15:29.553Z,5.10
2023-02-15T14:19:58.254Z,3.47
2023-02-15T14:24:33.481Z,3.30
2023-02-15T14:29:09.181Z,4.80
2023-02-15T14:33:41.648Z,5.22
2023-02-15T14:38:10.640Z,3.47
2023-02-15T14:42:53.941Z,7.93
2023-02-15T14:47:27.802Z,6.13
2023-02-15T14:51:46.387Z,6.70
2023-02-15T14:56:14.642Z,5.30
2023-02-15T15:00:38.899Z,4.40
2023-02-15T15:05:10.495Z,4.63
2023-02-15T15:09:30.709Z,4.68
2023-02-15T15:14:01.782Z,6.72
2023-02-15T15:18:43.596Z,5.05
2023-02-15T15:23:15.626Z,7.18
2023-02-15T15:27:49.568Z,6.07
2023-02-15T15:32:10.340Z,4.85
2023-02-15T15:36:45.478Z,5.90
2023-02-15T15:41:42.653Z,4.30
2023-02-15T15:46:25.398Z,6.95
2023-02-15T15:50:43.522Z,7.38
2023-02-15T15:55:14.722Z,5.30
2023-02-15T15:59:33.676Z,9.18
2023-02-15T16:03:53.262Z,9.95
2023-02-15T16:08:10.402Z,6.22
2023-02-15T16:12:30.130Z,6.95
2023-02-15T16:16:51.585Z,26.40
2023-02-15T16:21:19.538Z,9.73
2023-02-15T16:25:48.250Z,5.38
2023-02-15T16:30:38.312Z,10.73
2023-02-15T16:35:01.521Z,5.65
2023-02-15T16:39:20.915Z,9.13
2023-02-15T16:43:39.384Z,12.02
2023-02-15T16:47:58.609Z,23.25
2023-02-15T16:52:22.105Z,20.95
2023-02-15T16:56:40.332Z,14.73
2023-02-15T17:01:00.708Z,11.93
2023-02-15T17:05:21.698Z,13.20
2023-02-15T17:09:53.740Z,11.23
2023-02-15T17:14:12.017Z,9.93
2023-02-15T17:18:39.660Z,8.30
2023-02-15T17:22:57.574Z,7.78
2023-02-15T17:27:24.448Z,9.47
2023-02-15T17:31:41.910Z,11.73
2023-02-15T17:36:22.743Z,10.47
2023-02-15T17:40:40.165Z,12.25
2023-02-15T17:44:57.473Z,11.88
2023-02-15T17:49:24.428Z,10.13
2023-02-15T17:54:03.013Z,13.33
2023-02-15T17:58:22.354Z,13.35
2023-02-15T18:03:01.820Z,11.30
2023-02-15T18:07:39.272Z,13.00
2023-02-15T18:11:57.751Z,16.40
2023-02-15T18:16:19.653Z,14.27
2023-02-15T18:20:37.207Z,14.77
2023-02-15T18:24:54.684Z,13.43
2023-02-15T18:29:12.275Z,18.33
2023-02-15T18:33:35.983Z,17.13
2023-02-15T18:37:54.032Z,19.88
2023-02-15T18:42:23.995Z,19.48
2023-02-15T18:46:41.408Z,22.88
2023-02-15T18:50:58.725Z,19.10
2023-02-15T18:55:21.592Z,19.92
2023-02-15T18:59:38.899Z,16.55
2023-02-15T19:03:56.212Z,15.98
2023-02-15T19:08:18.761Z,16.42
2023-02-15T19:12:36.131Z,18.02
2023-02-15T19:16:54.336Z,18.17
2023-02-15T19:21:18.507Z,18.40
2023-02-15T19:25:38.914Z,18.05
2023-02-15T19:29:58.347Z,17.40
2023-02-15T19:34:18.709Z,15.68
2023-02-15T19:38:36.840Z,20.52
2023-02-15T19:42:54.666Z,16.95
2023-02-15T19:47:15.025Z,19.15
2023-02-15T19:51:34.033Z,20.02
2023-02-15T19:55:52.179Z,21.27
2023-02-15T20:00:22.217Z,18.88
2023-02-15T20:04:40.416Z,20.85
2023-02-15T20:08:57.816Z,20.77
2023-02-15T20:13:17.048Z,20.15
2023-02-15T20:17:34.304Z,22.35
2023-02-15T20:21:54.470Z,25.15
2023-02-15T20:26:18.232Z,23.15
2023-02-15T20:30:35.625Z,25.38
2023-02-15T20:34:52.831Z,32.63
2023-02-15T20:39:17.209Z,29.58
2023-02-15T20:43:34.800Z,19.73
2023-02-15T20:47:52.757Z,22.67
2023-02-15T20:52:20.686Z,20.33
2023-02-15T20:56:38.262Z,23.23
2023-02-15T21:00:58.454Z,22.37
2023-02-15T21:05:24.275Z,19.98
2023-02-15T21:09:41.415Z,20.45
2023-02-15T21:13:58.499Z,21.25
2023-02-15T21:18:30.380Z,21.83
2023-02-15T21:22:48.164Z,20.73
2023-02-15T21:27:09.717Z,20.42
2023-02-15T21:31:28.647Z,23.70
2023-02-15T21:35:49.846Z,20.25
2023-02-15T21:40:18.686Z,20.30
2023-02-15T21:44:54.676Z,21.80
2023-02-15T21:49:11.747Z,21.90
2023-02-15T21:53:34.236Z,20.48
2023-02-15T21:57:51.547Z,18.75
2023-02-15T22:02:37.971Z,22.40
2023-02-15T22:06:55.956Z,22.77
2023-02-15T22:11:22.587Z,21.95
2023-02-15T22:15:39.802Z,21.13
2023-02-15T22:19:58.011Z,21.65
2023-02-15T22:24:15.113Z,19.27
2023-02-15T22:28:37.974Z,21.98
2023-02-15T22:32:56.487Z,19.92
2023-02-15T22:37:13.637Z,20.33
2023-02-15T22:41:31.621Z,20.27
2023-02-15T22:45:49.495Z,21.05
2023-02-15T22:50:19.270Z,20.10
2023-02-15T22:54:36.422Z,20.50
2023-02-15T22:59:00.944Z,21.08
2023-02-15T23:03:25.398Z,24.77
2023-02-15T23:07:42.660Z,20.00
2023-02-15T23:11:59.821Z,20.60
2023-02-15T23:16:18.322Z,21.27
2023-02-15T23:24:53.429Z,20.60
2023-02-15T23:29:22.403Z,22.83
2023-02-15T23:33:39.648Z,22.13
2023-02-15T23:37:56.725Z,24.52
2023-02-15T23:42:17.888Z,24.48
2023-02-15T23:46:44.659Z,24.27
2023-02-15T23:51:02.774Z,23.85
2023-02-15T23:55:20.940Z,22.15
2023-02-15T23:59:42.327Z,23.60
